Time;durP1;ratioP1;P1;durP2;ratioP2;P2;SDS_P1;SDS_P2;PMS_P1;PMS_P2;Temp;Humidity;BMP_temperature;BMP_pressure;BME280_temperature;BME280_humidity;BME280_pressure;Samples;Min_cycle;Max_cycle;Signal;HPM_P1;HPM_P2
2022/10/22 00:00:23;;;;;;;;;;;12.50;99.90;;;;;;5054159;28;20340;-70
2022/10/22 00:02:48;;;;;;;;;;;12.50;99.90;;;;;;5054041;28;19920;-70
2022/10/22 00:05:18;;;;;;;;;;;12.50;99.90;;;;;;5053706;28;19924;-60
2022/10/22 00:07:44;;;;;;;;;;;12.40;99.90;;;;;;5053941;28;19940;-60
2022/10/22 00:10:09;;;;;;;;;;;12.30;99.90;;;;;;5052684;28;19917;-60
2022/10/22 00:12:35;;;;;;;;;;;12.30;99.90;;;;;;5053985;28;20360;-60
2022/10/22 00:15:01;;;;;;;;;;;12.20;99.90;;;;;;5053870;28;20330;-60
2022/10/22 00:17:27;;;;;;;;;;;12.10;99.90;;;;;;5053728;28;20009;-60
2022/10/22 00:19:52;;;;;;;;;;;12.10;99.90;;;;;;5053409;28;19917;-60
2022/10/22 00:22:18;;;;;;;;;;;11.90;99.90;;;;;;5053643;28;19916;-60
2022/10/22 00:24:44;;;;;;;;;;;12.00;99.90;;;;;;5053690;28;20339;-60
2022/10/22 00:27:10;;;;;;;;;;;11.90;99.90;;;;;;5053558;28;20284;-70
2022/10/22 00:29:37;;;;;;;;;;;11.80;99.90;;;;;;5053842;28;19920;-70
2022/10/22 00:32:06;;;;;;;;;;;11.80;99.90;;;;;;5053646;28;19920;-70
2022/10/22 00:34:32;;;;;;;;;;;11.70;99.90;;;;;;5052107;28;19967;-70
2022/10/22 00:36:58;;;;;;;;;;;11.70;99.90;;;;;;5052275;28;20331;-70
2022/10/22 00:39:24;;;;;;;;;;;11.60;99.90;;;;;;5053611;28;19947;-70
2022/10/22 00:41:51;;;;;;;;;;;11.60;99.90;;;;;;5053562;28;20363;-70
2022/10/22 00:44:35;;;;;;;;;;;11.50;99.90;;;;;;5053379;28;20301;-71
2022/10/22 00:47:05;;;;;;;;;;;11.50;99.90;;;;;;5053690;28;20462;-70
2022/10/22 00:49:32;;;;;;;;;;;11.50;99.90;;;;;;5053549;28;19916;-70
2022/10/22 00:52:00;;;;;;;;;;;11.50;99.90;;;;;;5053522;28;19928;-70
2022/10/22 00:54:29;;;;;;;;;;;11.40;99.90;;;;;;5053470;28;19964;-70
2022/10/22 00:56:54;;;;;;;;;;;11.40;99.90;;;;;;5053405;28;20423;-70
2022/10/22 00:59:20;;;;;;;;;;;11.40;99.90;;;;;;5053122;28;20342;-69
2022/10/22 01:01:49;;;;;;;;;;;11.40;99.90;;;;;;5052230;28;20007;-70
2022/10/22 01:04:15;;;;;;;;;;;11.40;99.90;;;;;;5053353;28;19995;-70
2022/10/22 01:06:41;;;;;;;;;;;11.40;99.90;;;;;;5053376;28;19916;-70
2022/10/22 01:09:31;;;;;;;;;;;11.40;99.90;;;;;;5053253;28;20003;-70
2022/10/22 01:12:15;;;;;;;;;;;11.40;99.90;;;;;;5053150;28;19917;-70
2022/10/22 01:14:47;;;;;;;;;;;11.40;99.90;;;;;;5053133;28;19943;-70
2022/10/22 01:17:20;;;;;;;;;;;11.30;99.90;;;;;;5053088;28;19923;-70
2022/10/22 01:19:58;;;;;;;;;;;11.40;99.90;;;;;;5053228;28;19951;-71
2022/10/22 01:22:31;;;;;;;;;;;11.40;99.90;;;;;;5053032;28;20360;-71
2022/10/22 01:25:16;;;;;;;;;;;11.30;99.90;;;;;;5035096;28;19921;-71
2022/10/22 01:27:50;;;;;;;;;;;11.30;99.90;;;;;;5053063;28;19953;-70
2022/10/22 01:30:16;;;;;;;;;;;11.20;99.90;;;;;;5052387;28;19970;-70
2022/10/22 01:32:44;;;;;;;;;;;11.20;99.90;;;;;;5056753;28;19923;-69
2022/10/22 01:35:12;;;;;;;;;;;11.20;99.90;;;;;;5056721;28;19935;-70
2022/10/22 01:37:44;;;;;;;;;;;11.20;99.90;;;;;;5056951;28;19920;-70
2022/10/22 01:40:10;;;;;;;;;;;11.20;99.90;;;;;;5056562;28;19917;-70
2022/10/22 01:42:36;;;;;;;;;;;11.20;99.90;;;;;;5056759;28;19917;-70
2022/10/22 01:45:09;;;;;;;;;;;11.10;99.90;;;;;;5056484;28;20426;-70
2022/10/22 01:47:34;;;;;;;;;;;11.00;99.90;;;;;;5056921;28;20220;-70
2022/10/22 01:50:00;;;;;;;;;;;10.90;99.90;;;;;;5056750;28;19999;-70
2022/10/22 01:52:25;;;;;;;;;;;10.90;99.90;;;;;;5056581;28;19964;-71
2022/10/22 01:54:59;;;;;;;;;;;10.90;99.90;;;;;;5055247;28;19967;-70
2022/10/22 01:57:32;;;;;;;;;;;10.90;99.90;;;;;;5056474;28;19916;-70
2022/10/22 02:00:04;;;;;;;;;;;10.90;99.90;;;;;;5056554;28;20010;-70
2022/10/22 02:02:35;;;;;;;;;;;10.80;99.90;;;;;;5056591;28;20372;-70
2022/10/22 02:05:08;;;;;;;;;;;10.80;99.90;;;;;;5056301;28;19944;-70
2022/10/22 02:07:39;;;;;;;;;;;10.80;99.90;;;;;;5055015;28;19916;-70
2022/10/22 02:10:06;;;;;;;;;;;10.90;99.90;;;;;;5056055;28;19917;-71
2022/10/22 02:12:32;;;;;;;;;;;10.80;99.90;;;;;;5056397;28;19971;-70
2022/10/22 02:15:01;;;;;;;;;;;10.90;99.90;;;;;;5056163;28;19967;-70
2022/10/22 02:17:29;;;;;;;;;;;10.90;99.90;;;;;;5055956;28;19916;-71
2022/10/22 02:20:02;;;;;;;;;;;10.90;99.90;;;;;;5054737;28;19920;-71
2022/10/22 02:22:28;;;;;;;;;;;10.90;99.90;;;;;;5054936;28;20304;-70
2022/10/22 02:24:54;;;;;;;;;;;10.90;99.90;;;;;;5055685;28;20273;-70
2022/10/22 02:27:26;;;;;;;;;;;10.90;99.90;;;;;;5056240;28;19962;-70
2022/10/22 02:30:05;;;;;;;;;;;10.90;99.90;;;;;;5055995;28;19956;-70
2022/10/22 02:32:51;;;;;;;;;;;10.90;99.90;;;;;;5055714;28;19917;-70
2022/10/22 02:35:22;;;;;;;;;;;10.80;99.90;;;;;;5025180;28;20343;-69
2022/10/22 02:37:48;;;;;;;;;;;10.80;99.90;;;;;;5055794;28;19921;-60
2022/10/22 02:40:14;;;;;;;;;;;10.80;99.90;;;;;;5055701;28;20011;-60
2022/10/22 02:42:40;;;;;;;;;;;10.80;99.90;;;;;;5054543;28;19974;-60
2022/10/22 02:45:06;;;;;;;;;;;10.90;99.90;;;;;;5055581;28;19928;-60
2022/10/22 02:47:36;;;;;;;;;;;10.90;99.90;;;;;;5055719;28;20053;-60
2022/10/22 02:50:01;;;;;;;;;;;10.90;99.90;;;;;;5055666;28;20007;-60
2022/10/22 02:52:27;;;;;;;;;;;10.80;99.90;;;;;;5055338;28;19982;-60
2022/10/22 02:54:53;;;;;;;;;;;10.90;99.90;;;;;;5055501;28;19923;-61
2022/10/22 02:57:19;;;;;;;;;;;10.90;99.90;;;;;;5055377;28;19917;-60
2022/10/22 02:59:44;;;;;;;;;;;10.90;99.90;;;;;;5055232;28;19920;-60
2022/10/22 03:02:11;;;;;;;;;;;10.90;99.90;;;;;;5055328;28;19923;-60
2022/10/22 03:04:37;;;;;;;;;;;10.90;99.90;;;;;;5054853;28;20357;-60
2022/10/22 03:07:04;;;;;;;;;;;11.00;99.90;;;;;;5055095;28;19925;-60
2022/10/22 03:09:29;;;;;;;;;;;11.00;99.90;;;;;;5053760;28;20419;-60
2022/10/22 03:11:55;;;;;;;;;;;11.00;99.90;;;;;;5055053;28;19968;-60
2022/10/22 03:14:21;;;;;;;;;;;11.10;99.90;;;;;;5055049;28;20415;-60
2022/10/22 03:16:46;;;;;;;;;;;11.00;99.90;;;;;;5054804;28;19924;-60
2022/10/22 03:19:12;;;;;;;;;;;11.10;99.90;;;;;;5054847;28;19920;-60
2022/10/22 03:21:40;;;;;;;;;;;11.10;99.90;;;;;;5054969;28;19924;-60
2022/10/22 03:24:17;;;;;;;;;;;11.10;99.90;;;;;;5054980;28;19947;-60
2022/10/22 03:26:44;;;;;;;;;;;11.10;99.90;;;;;;5053558;28;19924;-60
2022/10/22 03:29:11;;;;;;;;;;;11.10;99.90;;;;;;5054699;28;20261;-60
2022/10/22 03:31:40;;;;;;;;;;;11.00;99.90;;;;;;5054865;28;20373;-60
2022/10/22 03:34:06;;;;;;;;;;;11.00;99.90;;;;;;5053113;28;19921;-60
2022/10/22 03:36:32;;;;;;;;;;;11.10;99.90;;;;;;5053241;28;19924;-61
2022/10/22 03:38:58;;;;;;;;;;;11.10;99.90;;;;;;5054410;28;20015;-61
2022/10/22 03:41:24;;;;;;;;;;;11.00;99.90;;;;;;5054502;28;19963;-61
2022/10/22 03:43:51;;;;;;;;;;;11.10;99.90;;;;;;5054220;28;19963;-61
2022/10/22 03:46:18;;;;;;;;;;;11.10;99.90;;;;;;5054329;28;19927;-61
2022/10/22 03:48:47;;;;;;;;;;;11.10;99.90;;;;;;5054492;28;19924;-61
2022/10/22 03:51:12;;;;;;;;;;;11.10;99.90;;;;;;5052960;28;19916;-61
2022/10/22 03:53:38;;;;;;;;;;;11.00;99.90;;;;;;5053704;28;19928;-61
2022/10/22 03:56:08;;;;;;;;;;;11.10;99.90;;;;;;5054229;28;20015;-61
2022/10/22 03:58:33;;;;;;;;;;;10.90;99.90;;;;;;5052808;28;19916;-61
2022/10/22 04:01:06;;;;;;;;;;;11.10;99.90;;;;;;5054264;28;19924;-61
2022/10/22 04:03:31;;;;;;;;;;;11.10;99.90;;;;;;5054139;28;20003;-59
2022/10/22 04:06:06;;;;;;;;;;;11.00;99.90;;;;;;5054038;28;20036;-59
2022/10/22 04:08:32;;;;;;;;;;;11.00;99.90;;;;;;5053985;28;19943;-59
2022/10/22 04:11:00;;;;;;;;;;;11.00;99.90;;;;;;5052735;28;19923;-59
2022/10/22 04:13:25;;;;;;;;;;;11.00;99.90;;;;;;5054115;28;20349;-59
2022/10/22 04:15:55;;;;;;;;;;;10.90;99.90;;;;;;5054019;28;20379;-59
2022/10/22 04:18:22;;;;;;;;;;;10.90;99.90;;;;;;5053844;28;19995;-59
2022/10/22 04:20:51;;;;;;;;;;;10.80;99.90;;;;;;5053786;28;19924;-59
2022/10/22 04:23:18;;;;;;;;;;;10.80;99.90;;;;;;5053513;28;20390;-59
2022/10/22 04:25:44;;;;;;;;;;;10.70;99.90;;;;;;5053298;28;20365;-59
2022/10/22 04:28:09;;;;;;;;;;;10.70;99.90;;;;;;5053620;28;19924;-59
2022/10/22 04:30:38;;;;;;;;;;;10.70;99.90;;;;;;5053521;28;19917;-59
2022/10/22 04:33:05;;;;;;;;;;;10.60;99.90;;;;;;5053519;28;20426;-59
2022/10/22 04:35:30;;;;;;;;;;;10.60;99.90;;;;;;5053319;28;19921;-59
2022/10/22 04:37:56;;;;;;;;;;;10.50;99.90;;;;;;5053513;28;20361;-59
2022/10/22 04:40:21;;;;;;;;;;;10.50;99.90;;;;;;5053755;28;19939;-59
2022/10/22 04:42:47;;;;;;;;;;;10.50;99.90;;;;;;5053686;28;19928;-59
2022/10/22 04:45:14;;;;;;;;;;;10.50;99.90;;;;;;5053223;28;19921;-59
2022/10/22 04:47:40;;;;;;;;;;;10.40;99.90;;;;;;5053504;28;19924;-59
2022/10/22 04:50:06;;;;;;;;;;;10.30;99.90;;;;;;5053352;28;19917;-59
2022/10/22 04:52:32;;;;;;;;;;;10.40;99.90;;;;;;5053412;28;19936;-59
2022/10/22 04:54:58;;;;;;;;;;;10.40;99.90;;;;;;5052013;28;19928;-59
2022/10/22 04:57:28;;;;;;;;;;;10.30;99.90;;;;;;5052114;28;19917;-59
2022/10/22 04:59:53;;;;;;;;;;;10.30;99.90;;;;;;5052087;28;20038;-69
2022/10/22 05:02:19;;;;;;;;;;;10.30;99.90;;;;;;5052340;28;20333;-69
2022/10/22 05:04:45;;;;;;;;;;;10.30;99.90;;;;;;5051968;28;20288;-69
2022/10/22 05:07:11;;;;;;;;;;;10.30;99.90;;;;;;5057001;28;19923;-70
2022/10/22 05:09:36;;;;;;;;;;;10.20;99.90;;;;;;5057217;28;20011;-69
2022/10/22 05:12:02;;;;;;;;;;;10.30;99.90;;;;;;5055946;28;19916;-69
2022/10/22 05:14:27;;;;;;;;;;;10.20;99.90;;;;;;5057370;28;19967;-69
2022/10/22 05:16:57;;;;;;;;;;;10.20;99.90;;;;;;5055955;28;19916;-70
2022/10/22 05:19:24;;;;;;;;;;;10.30;99.90;;;;;;5057100;28;20012;-70
2022/10/22 05:21:54;;;;;;;;;;;10.20;99.90;;;;;;5056823;28;20253;-70
2022/10/22 05:24:23;;;;;;;;;;;10.20;99.90;;;;;;5057265;28;19917;-70
2022/10/22 05:26:50;;;;;;;;;;;10.20;99.90;;;;;;5057218;28;20230;-69
2022/10/22 05:29:15;;;;;;;;;;;10.20;99.90;;;;;;5056829;28;19924;-69
2022/10/22 05:31:41;;;;;;;;;;;10.20;99.90;;;;;;5056995;28;19916;-69
2022/10/22 05:34:06;;;;;;;;;;;10.10;99.90;;;;;;5056497;28;20327;-69
2022/10/22 05:36:32;;;;;;;;;;;10.10;99.90;;;;;;5057242;28;20368;-69
2022/10/22 05:38:59;;;;;;;;;;;10.10;99.90;;;;;;5056640;28;20011;-69
2022/10/22 05:41:26;;;;;;;;;;;10.10;99.90;;;;;;5056842;28;19970;-70
2022/10/22 05:43:54;;;;;;;;;;;10.10;99.90;;;;;;5056527;28;20372;-70
2022/10/22 05:46:20;;;;;;;;;;;10.10;99.90;;;;;;5056651;28;20035;-70
2022/10/22 05:48:50;;;;;;;;;;;10.00;99.90;;;;;;5055926;28;20288;-70
2022/10/22 05:51:15;;;;;;;;;;;10.00;99.90;;;;;;5056503;28;19927;-70
2022/10/22 05:53:42;;;;;;;;;;;10.00;99.90;;;;;;5056383;28;20027;-70
2022/10/22 05:56:13;;;;;;;;;;;10.10;99.90;;;;;;5056637;28;19921;-70
2022/10/22 05:58:40;;;;;;;;;;;10.00;99.90;;;;;;5056480;28;19970;-70
2022/10/22 06:01:06;;;;;;;;;;;10.10;99.90;;;;;;5056421;28;19932;-70
2022/10/22 06:03:32;;;;;;;;;;;10.10;99.90;;;;;;5055257;28;19917;-70
2022/10/22 06:06:03;;;;;;;;;;;10.20;99.90;;;;;;5056410;28;19972;-60
2022/10/22 06:08:30;;;;;;;;;;;10.10;99.90;;;;;;5055023;28;19917;-60
2022/10/22 06:10:56;;;;;;;;;;;10.10;99.90;;;;;;5056339;28;19939;-60
2022/10/22 06:13:21;;;;;;;;;;;10.10;99.90;;;;;;5056239;28;20369;-60
2022/10/22 06:15:47;;;;;;;;;;;10.10;99.90;;;;;;5055992;28;20017;-60
2022/10/22 06:18:13;;;;;;;;;;;10.20;99.90;;;;;;5055621;28;19917;-60
2022/10/22 06:20:44;;;;;;;;;;;10.20;99.90;;;;;;5056186;28;19963;-61
2022/10/22 06:23:14;;;;;;;;;;;10.30;99.90;;;;;;5056033;28;19923;-60
2022/10/22 06:25:42;;;;;;;;;;;10.40;99.90;;;;;;5055725;28;20360;-60
2022/10/22 06:28:08;;;;;;;;;;;10.40;99.90;;;;;;5054550;28;19970;-60
2022/10/22 06:30:33;;;;;;;;;;;10.40;99.90;;;;;;5055906;28;19992;-60
2022/10/22 06:32:59;;;;;;;;;;;10.40;99.90;;;;;;5055706;28;19944;-60
2022/10/22 06:35:25;;;;;;;;;;;10.50;99.90;;;;;;5054267;28;19921;-60
2022/10/22 06:37:52;;;;;;;;;;;10.40;99.90;;;;;;5055534;28;19916;-60
2022/10/22 06:40:18;;;;;;;;;;;10.50;99.90;;;;;;5054295;28;20037;-70
2022/10/22 06:42:44;;;;;;;;;;;10.70;99.90;;;;;;5054386;28;20003;-70
2022/10/22 06:45:10;;;;;;;;;;;10.80;99.90;;;;;;5055364;28;20003;-60
2022/10/22 06:47:39;;;;;;;;;;;10.90;99.90;;;;;;5055370;28;20415;-60
2022/10/22 06:50:06;;;;;;;;;;;11.00;99.90;;;;;;5054015;28;19952;-60
2022/10/22 06:52:31;;;;;;;;;;;11.10;99.90;;;;;;5055707;28;20026;-60
2022/10/22 06:54:57;;;;;;;;;;;11.20;99.90;;;;;;5055425;28;20387;-60
2022/10/22 06:57:23;;;;;;;;;;;11.30;99.90;;;;;;5055200;28;20435;-60
2022/10/22 06:59:48;;;;;;;;;;;11.40;99.90;;;;;;5054503;28;19969;-60
2022/10/22 07:02:14;;;;;;;;;;;11.60;99.90;;;;;;5055012;28;19920;-60
2022/10/22 07:04:45;;;;;;;;;;;11.70;99.90;;;;;;5054708;28;20055;-60
2022/10/22 07:07:11;;;;;;;;;;;11.90;99.90;;;;;;5055443;28;19917;-60
2022/10/22 07:09:38;;;;;;;;;;;12.00;99.90;;;;;;5054427;28;20431;-60
2022/10/22 07:12:03;;;;;;;;;;;12.10;99.90;;;;;;5037046;28;20380;-60
2022/10/22 07:14:29;;;;;;;;;;;12.30;99.90;;;;;;5053344;28;19916;-71
2022/10/22 07:16:55;;;;;;;;;;;12.40;99.90;;;;;;5040254;28;20427;-71
2022/10/22 07:19:21;;;;;;;;;;;12.50;99.90;;;;;;5039817;28;19921;-71
2022/10/22 07:21:53;;;;;;;;;;;12.50;99.90;;;;;;5052302;28;19964;-60
2022/10/22 07:24:19;;;;;;;;;;;12.90;99.90;;;;;;5053309;28;19988;-60
2022/10/22 07:26:46;;;;;;;;;;;12.80;99.90;;;;;;5053285;28;19996;-60
2022/10/22 07:29:14;;;;;;;;;;;12.80;99.90;;;;;;5051262;28;19916;-60
2022/10/22 07:31:40;;;;;;;;;;;12.90;99.90;;;;;;5052129;28;19923;-61
2022/10/22 07:34:07;;;;;;;;;;;13.00;99.90;;;;;;5053120;28;19920;-60
2022/10/22 07:36:33;;;;;;;;;;;13.10;99.90;;;;;;5052141;28;20356;-60
2022/10/22 07:38:59;;;;;;;;;;;13.20;99.90;;;;;;5051581;28;19917;-60
2022/10/22 07:41:25;;;;;;;;;;;13.30;99.90;;;;;;5053548;28;19921;-60
2022/10/22 07:43:55;;;;;;;;;;;13.40;99.90;;;;;;5053246;28;20016;-60
2022/10/22 07:46:22;;;;;;;;;;;13.60;99.90;;;;;;5052954;28;19921;-60
2022/10/22 07:48:48;;;;;;;;;;;13.60;99.90;;;;;;5052995;28;20380;-60
2022/10/22 07:51:13;;;;;;;;;;;13.80;99.90;;;;;;5052058;28;19923;-60
2022/10/22 07:53:42;;;;;;;;;;;13.90;99.90;;;;;;5053186;28;19917;-60
2022/10/22 07:56:09;;;;;;;;;;;14.00;99.90;;;;;;5050616;28;20467;-60
2022/10/22 07:58:37;;;;;;;;;;;14.00;99.90;;;;;;5053913;28;20007;-60
2022/10/22 08:01:06;;;;;;;;;;;14.10;99.90;;;;;;5053922;28;20357;-60
2022/10/22 08:03:31;;;;;;;;;;;14.10;99.90;;;;;;5054013;28;19923;-60
2022/10/22 08:06:08;;;;;;;;;;;14.20;99.90;;;;;;5054262;28;20277;-60
2022/10/22 08:08:33;;;;;;;;;;;14.20;99.90;;;;;;5052546;28;19917;-60
2022/10/22 08:10:59;;;;;;;;;;;14.20;99.90;;;;;;5053812;28;20509;-60
2022/10/22 08:13:26;;;;;;;;;;;14.20;99.90;;;;;;5053742;28;20403;-60
2022/10/22 08:15:53;;;;;;;;;;;14.20;99.90;;;;;;5052427;28;20368;-60
2022/10/22 08:18:19;;;;;;;;;;;14.20;99.90;;;;;;5053968;28;19917;-60
2022/10/22 08:20:45;;;;;;;;;;;14.20;99.90;;;;;;5053656;28;19962;-60
2022/10/22 08:23:14;;;;;;;;;;;14.20;99.90;;;;;;5052342;28;20356;-61
2022/10/22 08:25:41;;;;;;;;;;;14.20;99.90;;;;;;5053666;28;19921;-61
2022/10/22 08:28:10;;;;;;;;;;;14.20;99.90;;;;;;5053865;28;19999;-61
2022/10/22 08:30:37;;;;;;;;;;;14.20;99.90;;;;;;5052721;28;20422;-61
2022/10/22 08:33:05;;;;;;;;;;;14.30;99.90;;;;;;5053515;28;19947;-61
2022/10/22 08:35:30;;;;;;;;;;;14.30;99.90;;;;;;5051899;28;20341;-61
2022/10/22 08:37:56;;;;;;;;;;;14.30;99.90;;;;;;5053375;28;19970;-61
2022/10/22 08:40:24;;;;;;;;;;;14.40;99.90;;;;;;5053405;28;20272;-61
2022/10/22 08:43:11;;;;;;;;;;;14.40;99.90;;;;;;5053436;28;20365;-61
2022/10/22 08:45:50;;;;;;;;;;;14.30;99.90;;;;;;5053200;28;19921;-61
2022/10/22 08:48:22;;;;;;;;;;;14.90;99.90;;;;;;5053190;28;19940;-61
2022/10/22 08:50:49;;;;;;;;;;;15.70;99.90;;;;;;5052803;28;19928;-61
2022/10/22 08:53:16;;;;;;;;;;;16.40;99.90;;;;;;5051923;28;20353;-61
2022/10/22 08:55:42;;;;;;;;;;;16.90;99.90;;;;;;5053258;28;19917;-61
2022/10/22 08:58:21;;;;;;;;;;;17.10;99.90;;;;;;5053542;28;19920;-61
2022/10/22 09:00:57;;;;;;;;;;;17.30;99.90;;;;;;5053446;28;20270;-61
2022/10/22 09:03:29;;;;;;;;;;;17.30;99.90;;;;;;5053442;28;19963;-61
2022/10/22 09:06:00;;;;;;;;;;;17.30;99.90;;;;;;5053043;28;19920;-73
2022/10/22 09:08:31;;;;;;;;;;;17.30;99.90;;;;;;5053183;28;19943;-75
2022/10/22 09:11:12;;;;;;;;;;;17.30;99.90;;;;;;5052973;28;19917;-74
2022/10/22 09:13:42;;;;;;;;;;;17.20;99.90;;;;;;5053325;28;19920;-75
2022/10/22 09:16:18;;;;;;;;;;;17.20;99.90;;;;;;5052130;28;20273;-75
2022/10/22 09:18:50;;;;;;;;;;;17.30;99.90;;;;;;5053187;28;20277;-73
2022/10/22 09:21:15;;;;;;;;;;;17.30;99.90;;;;;;5051812;28;19917;-74
2022/10/22 09:23:54;;;;;;;;;;;17.30;99.90;;;;;;5052992;28;19958;-75
2022/10/22 09:26:20;;;;;;;;;;;17.20;99.90;;;;;;5052684;28;19920;-74
2022/10/22 09:28:48;;;;;;;;;;;17.10;99.90;;;;;;5053198;28;20284;-74
2022/10/22 09:31:14;;;;;;;;;;;17.20;99.90;;;;;;5052932;28;20287;-74
2022/10/22 09:33:41;;;;;;;;;;;17.20;99.90;;;;;;5053007;28;19960;-75
2022/10/22 09:36:12;;;;;;;;;;;17.20;99.90;;;;;;5052280;28;19927;-74
2022/10/22 09:38:48;;;;;;;;;;;17.20;99.90;;;;;;5051519;28;19924;-75
2022/10/22 09:41:18;;;;;;;;;;;17.30;99.90;;;;;;5052605;28;20352;-76
2022/10/22 09:43:48;;;;;;;;;;;17.00;99.90;;;;;;5053166;28;19917;-76
2022/10/22 09:46:18;;;;;;;;;;;17.00;99.90;;;;;;5053630;28;20379;-77
2022/10/22 09:48:50;;;;;;;;;;;16.90;99.90;;;;;;5053202;28;20432;-76
2022/10/22 09:51:23;;;;;;;;;;;16.80;99.90;;;;;;5053180;28;20450;-77
2022/10/22 09:53:58;;;;;;;;;;;16.80;99.90;;;;;;5054667;28;19936;-77
2022/10/22 09:56:34;;;;;;;;;;;16.60;99.90;;;;;;5055729;28;19917;-78
2022/10/22 09:59:14;;;;;;;;;;;16.60;99.90;;;;;;5057047;28;19921;-78
2022/10/22 10:01:43;;;;;;;;;;;16.50;99.90;;;;;;5056510;28;20383;-77
2022/10/22 10:04:10;;;;;;;;;;;16.50;99.90;;;;;;5056455;28;19936;-79
2022/10/22 10:06:43;;;;;;;;;;;16.50;99.90;;;;;;5057084;28;19974;-78
2022/10/22 10:09:14;;;;;;;;;;;16.40;99.90;;;;;;5056790;28;19962;-79
2022/10/22 10:11:55;;;;;;;;;;;16.40;99.90;;;;;;5056643;28;19917;-77
2022/10/22 10:14:32;;;;;;;;;;;16.30;99.90;;;;;;5056615;28;19916;-79
2022/10/22 10:17:09;;;;;;;;;;;16.30;99.90;;;;;;5056096;28;19927;-78
2022/10/22 10:19:54;;;;;;;;;;;16.30;99.90;;;;;;5056115;28;19916;-78
2022/10/22 10:22:29;;;;;;;;;;;16.20;99.90;;;;;;5054812;28;20364;-79
2022/10/22 10:24:54;;;;;;;;;;;16.10;99.90;;;;;;5056063;28;20357;-80
2022/10/22 10:27:38;;;;;;;;;;;16.00;99.90;;;;;;5055822;28;20022;-79
2022/10/22 10:30:13;;;;;;;;;;;16.00;99.90;;;;;;5055793;28;20025;-80
2022/10/22 10:33:00;;;;;;;;;;;16.00;99.90;;;;;;5055780;28;20353;-80
2022/10/22 10:35:46;;;;;;;;;;;16.00;99.90;;;;;;5055167;28;19920;-80
2022/10/22 10:38:30;;;;;;;;;;;16.10;99.90;;;;;;5055583;28;19917;-79
2022/10/22 10:41:07;;;;;;;;;;;16.00;99.90;;;;;;5055587;28;19945;-79
2022/10/22 10:43:52;;;;;;;;;;;16.00;99.90;;;;;;5055602;28;20011;-78
2022/10/22 10:46:37;;;;;;;;;;;16.00;99.90;;;;;;5055567;28;19931;-79
2022/10/22 10:49:29;;;;;;;;;;;16.10;99.90;;;;;;5055518;28;20432;-79
2022/10/22 10:52:10;;;;;;;;;;;16.00;99.90;;;;;;5054363;28;20324;-80
2022/10/22 10:54:39;;;;;;;;;;;16.10;99.90;;;;;;5057568;28;19920;-80
2022/10/22 10:57:10;;;;;;;;;;;16.00;99.90;;;;;;5055516;28;20391;-79
2022/10/22 10:59:57;;;;;;;;;;;16.10;99.90;;;;;;5055940;28;19921;-79
2022/10/22 11:02:44;;;;;;;;;;;16.10;99.90;;;;;;5036581;28;20373;-78
2022/10/22 11:05:12;;;;;;;;;;;16.10;99.90;;;;;;5054100;28;19972;-78
2022/10/22 11:08:05;;;;;;;;;;;16.20;99.90;;;;;;5055619;28;19942;-78
2022/10/22 11:10:39;;;;;;;;;;;16.20;99.90;;;;;;5054696;28;20368;-78
2022/10/22 11:13:09;;;;;;;;;;;16.10;99.90;;;;;;5055390;28;19923;-78
2022/10/22 11:15:36;;;;;;;;;;;16.20;99.90;;;;;;5055272;28;20360;-77
2022/10/22 11:18:11;;;;;;;;;;;16.20;99.90;;;;;;5055002;28;19943;-78
2022/10/22 11:20:44;;;;;;;;;;;16.10;99.90;;;;;;5055160;28;19917;-78
2022/10/22 11:23:20;;;;;;;;;;;16.00;99.90;;;;;;5055530;28;19917;-78
2022/10/22 11:25:51;;;;;;;;;;;16.00;99.90;;;;;;5054854;28;19920;-79
2022/10/22 11:28:26;;;;;;;;;;;16.00;99.90;;;;;;5055484;28;20291;-79
2022/10/22 11:30:56;;;;;;;;;;;16.00;99.90;;;;;;5055565;28;20430;-78
2022/10/22 11:33:27;;;;;;;;;;;16.00;99.90;;;;;;5055972;28;19920;-78
2022/10/22 11:35:56;;;;;;;;;;;16.00;99.90;;;;;;5055288;28;20443;-77
2022/10/22 11:38:24;;;;;;;;;;;16.00;99.90;;;;;;5055178;28;20360;-76
2022/10/22 11:41:01;;;;;;;;;;;16.10;99.90;;;;;;5055087;28;20005;-76
2022/10/22 11:43:53;;;;;;;;;;;16.10;99.90;;;;;;5056060;28;19956;-78
2022/10/22 11:46:25;;;;;;;;;;;16.10;99.90;;;;;;5048493;28;19921;-78
2022/10/22 11:49:03;;;;;;;;;;;16.20;99.90;;;;;;5056213;28;19917;-77
2022/10/22 11:51:33;;;;;;;;;;;16.20;99.90;;;;;;5054968;28;19916;-78
2022/10/22 11:54:00;;;;;;;;;;;16.20;99.90;;;;;;5056297;28;19924;-78
2022/10/22 11:56:35;;;;;;;;;;;16.20;99.90;;;;;;5055671;28;20303;-77
2022/10/22 11:59:01;;;;;;;;;;;16.10;99.90;;;;;;5053352;28;19916;-77
2022/10/22 12:01:28;;;;;;;;;;;16.20;99.90;;;;;;5054575;28;20288;-77
2022/10/22 12:03:57;;;;;;;;;;;16.10;99.90;;;;;;5053006;28;19923;-63
2022/10/22 12:06:49;;;;;;;;;;;16.20;99.90;;;;;;5054218;28;19927;-62
2022/10/22 12:09:18;;;;;;;;;;;16.10;99.90;;;;;;5054306;28;19927;-63
2022/10/22 12:12:13;;;;;;;;;;;16.10;99.90;;;;;;5054093;28;19916;-63
2022/10/22 12:14:58;;;;;;;;;;;16.20;99.90;;;;;;5053695;28;20414;-63
2022/10/22 12:17:24;;;;;;;;;;;16.30;99.90;;;;;;5052114;28;19921;-63
2022/10/22 12:19:50;;;;;;;;;;;16.40;99.90;;;;;;5053941;28;20007;-63
2022/10/22 12:22:19;;;;;;;;;;;16.50;99.90;;;;;;5036450;28;19952;-63
2022/10/22 12:24:49;;;;;;;;;;;16.60;99.90;;;;;;5052492;28;19975;-63
2022/10/22 12:27:23;;;;;;;;;;;16.80;99.90;;;;;;5053745;28;20419;-75
2022/10/22 12:29:52;;;;;;;;;;;16.90;99.90;;;;;;5035868;28;19916;-76
2022/10/22 12:32:21;;;;;;;;;;;17.00;99.90;;;;;;5054222;28;19956;-78
2022/10/22 12:34:48;;;;;;;;;;;17.10;99.90;;;;;;5053763;28;20292;-76
2022/10/22 12:37:18;;;;;;;;;;;17.10;99.90;;;;;;5053604;28;20023;-76
2022/10/22 12:39:45;;;;;;;;;;;17.10;99.90;;;;;;5052382;28;20276;-63
2022/10/22 12:42:12;;;;;;;;;;;17.10;99.90;;;;;;5052151;28;19921;-63
2022/10/22 12:44:38;;;;;;;;;;;17.20;99.90;;;;;;5053621;28;19921;-62
2022/10/22 12:47:05;;;;;;;;;;;17.20;99.90;;;;;;5052162;28;19923;-62
2022/10/22 12:49:40;;;;;;;;;;;17.20;99.90;;;;;;5053512;28;19917;-63
2022/10/22 12:52:07;;;;;;;;;;;17.20;99.90;;;;;;5053660;28;19928;-63
2022/10/22 12:54:36;;;;;;;;;;;17.10;99.90;;;;;;5053783;28;19917;-63
2022/10/22 12:57:05;;;;;;;;;;;17.00;99.90;;;;;;5053630;28;20380;-63
2022/10/22 12:59:39;;;;;;;;;;;17.00;99.90;;;;;;5053415;28;19925;-63
2022/10/22 13:02:23;;;;;;;;;;;17.00;99.90;;;;;;5053344;28;19917;-63
2022/10/22 13:05:07;;;;;;;;;;;17.00;99.90;;;;;;5053519;28;19928;-62
2022/10/22 13:07:48;;;;;;;;;;;17.00;99.90;;;;;;5052797;28;19967;-63
2022/10/22 13:10:18;;;;;;;;;;;17.00;99.90;;;;;;5053627;28;19921;-63
2022/10/22 13:12:47;;;;;;;;;;;17.00;99.90;;;;;;5053327;28;19986;-63
2022/10/22 13:15:34;;;;;;;;;;;17.00;99.90;;;;;;5053522;28;19971;-63
2022/10/22 13:18:18;;;;;;;;;;;17.00;99.90;;;;;;5052363;28;19982;-63
2022/10/22 13:20:50;;;;;;;;;;;17.00;99.90;;;;;;5051981;28;19920;-63
2022/10/22 13:23:19;;;;;;;;;;;17.00;99.90;;;;;;5052627;28;19923;-63
2022/10/22 13:25:55;;;;;;;;;;;17.00;99.90;;;;;;5053023;28;20391;-63
2022/10/22 13:28:23;;;;;;;;;;;17.00;99.90;;;;;;5057157;28;19963;-63
2022/10/22 13:31:07;;;;;;;;;;;17.00;99.90;;;;;;5057146;28;20050;-62
2022/10/22 13:33:39;;;;;;;;;;;17.00;99.90;;;;;;5056999;28;20019;-63
2022/10/22 13:36:05;;;;;;;;;;;17.00;99.90;;;;;;5056706;28;20007;-63
2022/10/22 13:38:30;;;;;;;;;;;17.00;99.90;;;;;;5056550;28;20009;-63
2022/10/22 13:40:58;;;;;;;;;;;16.50;99.90;;;;;;5056878;28;20292;-63
2022/10/22 13:43:24;;;;;;;;;;;17.00;99.90;;;;;;5056727;28;19923;-63
2022/10/22 13:45:59;;;;;;;;;;;17.00;99.90;;;;;;5056720;28;20372;-74
2022/10/22 13:48:27;;;;;;;;;;;17.00;99.90;;;;;;5056621;28;19917;-74
2022/10/22 13:50:53;;;;;;;;;;;17.00;99.90;;;;;;5047098;28;19963;-73
2022/10/22 13:53:22;;;;;;;;;;;17.00;99.90;;;;;;5045508;28;19986;-73
2022/10/22 13:55:49;;;;;;;;;;;17.10;99.90;;;;;;5045961;28;19970;-74
2022/10/22 13:58:16;;;;;;;;;;;17.10;99.90;;;;;;5037268;28;20372;-73
2022/10/22 14:00:44;;;;;;;;;;;17.20;99.90;;;;;;5035285;28;20343;-73
2022/10/22 14:03:10;;;;;;;;;;;17.30;99.90;;;;;;5038172;28;19916;-73
2022/10/22 14:05:36;;;;;;;;;;;17.30;99.90;;;;;;5036873;28;19976;-73
2022/10/22 14:08:02;;;;;;;;;;;17.40;99.90;;;;;;5036493;28;20487;-74
2022/10/22 14:10:31;;;;;;;;;;;17.40;99.90;;;;;;5037081;28;20345;-74
2022/10/22 14:12:59;;;;;;;;;;;17.50;99.90;;;;;;5036321;28;19963;-74
2022/10/22 14:15:28;;;;;;;;;;;17.60;99.90;;;;;;5036210;28;19987;-74
2022/10/22 14:17:56;;;;;;;;;;;17.70;99.90;;;;;;5036698;28;19917;-75
2022/10/22 14:20:26;;;;;;;;;;;17.70;99.90;;;;;;5036708;28;19920;-75
2022/10/22 14:22:55;;;;;;;;;;;17.70;99.90;;;;;;5040512;28;19923;-75
2022/10/22 14:25:24;;;;;;;;;;;17.70;99.90;;;;;;5037054;28;19921;-75
2022/10/22 14:27:50;;;;;;;;;;;17.60;99.90;;;;;;5053706;28;20057;-74
2022/10/22 14:30:29;;;;;;;;;;;17.60;99.90;;;;;;5068733;28;20440;-75